sensor_id;sensor_type;location;lat;lon;timestamp;temperature;humidity
46438;DHT22;32137;48.728;9.142;2023-06-19T00:00:51;24.50;99.90
46438;DHT22;32137;48.728;9.142;2023-06-19T00:03:16;24.50;99.90
46438;DHT22;32137;48.728;9.142;2023-06-19T00:05:42;24.50;99.90
46438;DHT22;32137;48.728;9.142;2023-06-19T00:08:08;24.40;99.90
46438;DHT22;32137;48.728;9.142;2023-06-19T00:10:33;24.40;99.90
46438;DHT22;32137;48.728;9.142;2023-06-19T00:12:59;24.40;99.90
46438;DHT22;32137;48.728;9.142;2023-06-19T00:15:24;24.40;99.90
46438;DHT22;32137;48.728;9.142;2023-06-19T00:17:50;24.40;99.90
46438;DHT22;32137;48.728;9.142;2023-06-19T00:20:16;24.40;99.90
46438;DHT22;32137;48.728;9.142;2023-06-19T00:22:43;24.40;99.90
46438;DHT22;32137;48.728;9.142;2023-06-19T00:25:08;24.40;99.90
46438;DHT22;32137;48.728;9.142;2023-06-19T00:27:34;24.30;99.90
46438;DHT22;32137;48.728;9.142;2023-06-19T00:29:59;24.40;99.90
46438;DHT22;32137;48.728;9.142;2023-06-19T00:32:27;24.40;99.90
46438;DHT22;32137;48.728;9.142;2023-06-19T00:34:53;24.30;99.90
46438;DHT22;32137;48.728;9.142;2023-06-19T00:37:18;24.30;99.90
46438;DHT22;32137;48.728;9.142;2023-06-19T00:39:44;24.20;99.90
46438;DHT22;32137;48.728;9.142;2023-06-19T00:42:09;24.20;99.90
46438;DHT22;32137;48.728;9.142;2023-06-19T00:44:35;24.20;99.90
46438;DHT22;32137;48.728;9.142;2023-06-19T00:47:02;24.10;99.90
46438;DHT22;32137;48.728;9.142;2023-06-19T00:49:30;24.10;99.90
46438;DHT22;32137;48.728;9.142;2023-06-19T00:51:56;24.10;99.90
46438;DHT22;32137;48.728;9.142;2023-06-19T00:54:21;24.00;99.90
46438;DHT22;32137;48.728;9.142;2023-06-19T00:56:47;24.00;99.90
46438;DHT22;32137;48.728;9.142;2023-06-19T00:59:18;24.00;99.90
46438;DHT22;32137;48.728;9.142;2023-06-19T01:01:45;23.90;99.90
46438;DHT22;32137;48.728;9.142;2023-06-19T01:04:11;23.90;99.90
46438;DHT22;32137;48.728;9.142;2023-06-19T01:06:58;23.90;99.90
46438;DHT22;32137;48.728;9.142;2023-06-19T01:09:46;23.90;99.90
46438;DHT22;32137;48.728;9.142;2023-06-19T01:12:22;23.90;99.90
46438;DHT22;32137;48.728;9.142;2023-06-19T01:15:00;23.90;99.90
46438;DHT22;32137;48.728;9.142;2023-06-19T01:17:28;23.80;99.90
46438;DHT22;32137;48.728;9.142;2023-06-19T01:19:55;23.80;99.90
46438;DHT22;32137;48.728;9.142;2023-06-19T01:22:31;23.80;99.90
46438;DHT22;32137;48.728;9.142;2023-06-19T01:24:56;23.70;99.90
46438;DHT22;32137;48.728;9.142;2023-06-19T01:27:26;23.80;99.90
46438;DHT22;32137;48.728;9.142;2023-06-19T01:29:56;23.80;99.90
46438;DHT22;32137;48.728;9.142;2023-06-19T01:32:29;23.50;99.90
46438;DHT22;32137;48.728;9.142;2023-06-19T01:34:57;23.30;99.90
46438;DHT22;32137;48.728;9.142;2023-06-19T01:37:24;23.30;99.90
46438;DHT22;32137;48.728;9.142;2023-06-19T01:39:54;23.30;99.90
46438;DHT22;32137;48.728;9.142;2023-06-19T01:42:21;23.30;99.90
46438;DHT22;32137;48.728;9.142;2023-06-19T01:44:47;23.30;99.90
46438;DHT22;32137;48.728;9.142;2023-06-19T01:47:12;23.30;99.90
46438;DHT22;32137;48.728;9.142;2023-06-19T01:49:40;23.40;99.90
46438;DHT22;32137;48.728;9.142;2023-06-19T01:52:06;23.40;99.90
46438;DHT22;32137;48.728;9.142;2023-06-19T01:54:31;23.40;99.90
46438;DHT22;32137;48.728;9.142;2023-06-19T01:56:58;23.20;99.90
46438;DHT22;32137;48.728;9.142;2023-06-19T01:59:24;23.20;99.90
46438;DHT22;32137;48.728;9.142;2023-06-19T02:01:49;23.20;99.90
46438;DHT22;32137;48.728;9.142;2023-06-19T02:04:15;23.20;99.90
46438;DHT22;32137;48.728;9.142;2023-06-19T02:06:40;23.20;99.90
46438;DHT22;32137;48.728;9.142;2023-06-19T02:09:06;23.20;99.90
46438;DHT22;32137;48.728;9.142;2023-06-19T02:11:33;23.00;99.90
46438;DHT22;32137;48.728;9.142;2023-06-19T02:13:58;22.90;99.90
46438;DHT22;32137;48.728;9.142;2023-06-19T02:16:24;23.00;99.90
46438;DHT22;32137;48.728;9.142;2023-06-19T02:18:49;22.80;99.90
46438;DHT22;32137;48.728;9.142;2023-06-19T02:21:15;22.80;99.90
46438;DHT22;32137;48.728;9.142;2023-06-19T02:23:41;22.60;99.90
46438;DHT22;32137;48.728;9.142;2023-06-19T02:26:06;22.70;99.90
46438;DHT22;32137;48.728;9.142;2023-06-19T02:28:32;22.80;99.90
46438;DHT22;32137;48.728;9.142;2023-06-19T02:30:58;22.70;99.90
46438;DHT22;32137;48.728;9.142;2023-06-19T02:33:23;22.80;99.90
46438;DHT22;32137;48.728;9.142;2023-06-19T02:35:49;22.90;99.90
46438;DHT22;32137;48.728;9.142;2023-06-19T02:38:14;22.90;99.90
46438;DHT22;32137;48.728;9.142;2023-06-19T02:40:40;22.90;99.90
46438;DHT22;32137;48.728;9.142;2023-06-19T02:43:05;23.00;99.90
46438;DHT22;32137;48.728;9.142;2023-06-19T02:45:31;23.00;99.90
46438;DHT22;32137;48.728;9.142;2023-06-19T02:47:57;22.90;99.90
46438;DHT22;32137;48.728;9.142;2023-06-19T02:50:22;22.90;99.90
46438;DHT22;32137;48.728;9.142;2023-06-19T02:52:48;22.80;99.90
46438;DHT22;32137;48.728;9.142;2023-06-19T02:55:13;22.90;99.90
46438;DHT22;32137;48.728;9.142;2023-06-19T02:57:39;22.90;99.90
46438;DHT22;32137;48.728;9.142;2023-06-19T03:00:05;22.90;99.90
46438;DHT22;32137;48.728;9.142;2023-06-19T03:02:31;22.90;99.90
46438;DHT22;32137;48.728;9.142;2023-06-19T03:04:57;22.90;99.90
46438;DHT22;32137;48.728;9.142;2023-06-19T03:07:22;22.90;99.90
46438;DHT22;32137;48.728;9.142;2023-06-19T03:09:48;22.90;99.90
46438;DHT22;32137;48.728;9.142;2023-06-19T03:12:13;22.90;99.90
46438;DHT22;32137;48.728;9.142;2023-06-19T03:14:39;22.80;99.90
46438;DHT22;32137;48.728;9.142;2023-06-19T03:17:05;22.80;99.90
46438;DHT22;32137;48.728;9.142;2023-06-19T03:19:31;22.80;99.90
46438;DHT22;32137;48.728;9.142;2023-06-19T03:21:56;22.70;99.90
46438;DHT22;32137;48.728;9.142;2023-06-19T03:24:22;22.70;99.90
46438;DHT22;32137;48.728;9.142;2023-06-19T03:26:47;22.70;99.90
46438;DHT22;32137;48.728;9.142;2023-06-19T03:29:13;22.70;99.90
46438;DHT22;32137;48.728;9.142;2023-06-19T03:31:38;22.70;99.90
46438;DHT22;32137;48.728;9.142;2023-06-19T03:34:05;22.70;99.90
46438;DHT22;32137;48.728;9.142;2023-06-19T03:36:30;22.70;99.90
46438;DHT22;32137;48.728;9.142;2023-06-19T03:38:56;22.70;99.90
46438;DHT22;32137;48.728;9.142;2023-06-19T03:41:22;22.60;99.90
46438;DHT22;32137;48.728;9.142;2023-06-19T03:43:47;22.60;99.90
46438;DHT22;32137;48.728;9.142;2023-06-19T03:46:13;22.60;99.90
46438;DHT22;32137;48.728;9.142;2023-06-19T03:48:38;22.60;99.90
46438;DHT22;32137;48.728;9.142;2023-06-19T03:51:04;22.70;99.90
46438;DHT22;32137;48.728;9.142;2023-06-19T03:53:29;22.60;99.90
46438;DHT22;32137;48.728;9.142;2023-06-19T03:55:55;22.60;99.90
46438;DHT22;32137;48.728;9.142;2023-06-19T03:58:20;22.50;99.90
46438;DHT22;32137;48.728;9.142;2023-06-19T04:00:46;22.40;99.90
46438;DHT22;32137;48.728;9.142;2023-06-19T04:03:12;22.40;99.90
46438;DHT22;32137;48.728;9.142;2023-06-19T04:05:38;22.40;99.90
46438;DHT22;32137;48.728;9.142;2023-06-19T04:08:04;21.90;99.90
46438;DHT22;32137;48.728;9.142;2023-06-19T04:10:29;21.60;99.90
46438;DHT22;32137;48.728;9.142;2023-06-19T04:12:56;21.40;99.90
46438;DHT22;32137;48.728;9.142;2023-06-19T04:15:22;21.40;99.90
46438;DHT22;32137;48.728;9.142;2023-06-19T04:17:48;21.40;99.90
46438;DHT22;32137;48.728;9.142;2023-06-19T04:20:14;21.20;99.90
46438;DHT22;32137;48.728;9.142;2023-06-19T04:22:42;20.80;1.00
46438;DHT22;32137;48.728;9.142;2023-06-19T04:25:09;20.70;99.90
46438;DHT22;32137;48.728;9.142;2023-06-19T04:27:35;20.70;99.90
46438;DHT22;32137;48.728;9.142;2023-06-19T04:30:02;20.80;99.90
46438;DHT22;32137;48.728;9.142;2023-06-19T04:32:29;20.90;99.90
46438;DHT22;32137;48.728;9.142;2023-06-19T04:34:55;21.00;99.90
46438;DHT22;32137;48.728;9.142;2023-06-19T04:37:20;21.10;99.90
46438;DHT22;32137;48.728;9.142;2023-06-19T04:39:46;21.10;99.90
46438;DHT22;32137;48.728;9.142;2023-06-19T04:42:13;21.10;99.90
46438;DHT22;32137;48.728;9.142;2023-06-19T04:44:49;21.30;99.90
46438;DHT22;32137;48.728;9.142;2023-06-19T04:47:17;21.30;99.90
46438;DHT22;32137;48.728;9.142;2023-06-19T04:49:42;21.30;99.90
46438;DHT22;32137;48.728;9.142;2023-06-19T04:52:08;21.30;99.90
46438;DHT22;32137;48.728;9.142;2023-06-19T04:54:33;21.40;99.90
46438;DHT22;32137;48.728;9.142;2023-06-19T04:56:59;21.50;99.90
46438;DHT22;32137;48.728;9.142;2023-06-19T04:59:24;21.40;99.90
46438;DHT22;32137;48.728;9.142;2023-06-19T05:01:50;21.40;99.90
46438;DHT22;32137;48.728;9.142;2023-06-19T05:04:22;21.40;99.90
46438;DHT22;32137;48.728;9.142;2023-06-19T05:06:48;21.40;99.90
46438;DHT22;32137;48.728;9.142;2023-06-19T05:09:13;21.30;99.90
46438;DHT22;32137;48.728;9.142;2023-06-19T05:11:39;21.30;99.90
46438;DHT22;32137;48.728;9.142;2023-06-19T05:14:05;21.10;1.00
46438;DHT22;32137;48.728;9.142;2023-06-19T05:16:30;21.00;1.00
46438;DHT22;32137;48.728;9.142;2023-06-19T05:18:56;21.00;99.90
46438;DHT22;32137;48.728;9.142;2023-06-19T05:21:22;21.10;99.90
46438;DHT22;32137;48.728;9.142;2023-06-19T05:23:47;21.10;99.90
46438;DHT22;32137;48.728;9.142;2023-06-19T05:26:16;21.20;99.90
46438;DHT22;32137;48.728;9.142;2023-06-19T05:28:42;21.30;99.90
46438;DHT22;32137;48.728;9.142;2023-06-19T05:31:07;21.30;99.90
46438;DHT22;32137;48.728;9.142;2023-06-19T05:33:33;21.40;99.90
46438;DHT22;32137;48.728;9.142;2023-06-19T05:35:58;21.50;99.90
46438;DHT22;32137;48.728;9.142;2023-06-19T05:38:24;21.60;99.90
46438;DHT22;32137;48.728;9.142;2023-06-19T05:40:51;21.60;99.90
46438;DHT22;32137;48.728;9.142;2023-06-19T05:43:17;21.70;99.90
46438;DHT22;32137;48.728;9.142;2023-06-19T05:45:44;21.70;99.90
46438;DHT22;32137;48.728;9.142;2023-06-19T05:48:09;21.80;99.90
46438;DHT22;32137;48.728;9.142;2023-06-19T05:50:35;21.80;99.90
46438;DHT22;32137;48.728;9.142;2023-06-19T05:53:00;21.90;99.90
46438;DHT22;32137;48.728;9.142;2023-06-19T05:55:26;21.90;99.90
46438;DHT22;32137;48.728;9.142;2023-06-19T05:57:53;21.90;99.90
46438;DHT22;32137;48.728;9.142;2023-06-19T06:00:19;22.00;99.90
46438;DHT22;32137;48.728;9.142;2023-06-19T06:02:44;22.00;99.90
46438;DHT22;32137;48.728;9.142;2023-06-19T06:05:10;22.00;99.90
46438;DHT22;32137;48.728;9.142;2023-06-19T06:07:35;22.10;99.90
46438;DHT22;32137;48.728;9.142;2023-06-19T06:10:01;22.10;99.90
46438;DHT22;32137;48.728;9.142;2023-06-19T06:12:27;22.10;99.90
46438;DHT22;32137;48.728;9.142;2023-06-19T06:14:52;22.20;99.90
46438;DHT22;32137;48.728;9.142;2023-06-19T06:17:18;22.20;99.90
46438;DHT22;32137;48.728;9.142;2023-06-19T06:19:43;22.30;99.90
46438;DHT22;32137;48.728;9.142;2023-06-19T06:22:09;22.30;99.90
46438;DHT22;32137;48.728;9.142;2023-06-19T06:24:34;22.30;99.90
46438;DHT22;32137;48.728;9.142;2023-06-19T06:27:00;22.30;99.90
46438;DHT22;32137;48.728;9.142;2023-06-19T06:29:25;22.40;99.90
46438;DHT22;32137;48.728;9.142;2023-06-19T06:31:51;22.40;99.90
46438;DHT22;32137;48.728;9.142;2023-06-19T06:34:19;22.40;99.90
46438;DHT22;32137;48.728;9.142;2023-06-19T06:36:45;22.40;99.90
46438;DHT22;32137;48.728;9.142;2023-06-19T06:39:11;22.50;99.90
46438;DHT22;32137;48.728;9.142;2023-06-19T06:41:36;22.50;99.90
46438;DHT22;32137;48.728;9.142;2023-06-19T06:44:02;22.60;99.90
46438;DHT22;32137;48.728;9.142;2023-06-19T06:46:28;22.60;99.90
46438;DHT22;32137;48.728;9.142;2023-06-19T06:48:54;22.70;99.90
46438;DHT22;32137;48.728;9.142;2023-06-19T06:51:19;22.70;99.90
46438;DHT22;32137;48.728;9.142;2023-06-19T06:53:45;22.80;99.90
46438;DHT22;32137;48.728;9.142;2023-06-19T06:56:10;22.90;99.90
46438;DHT22;32137;48.728;9.142;2023-06-19T06:58:36;22.90;99.90
46438;DHT22;32137;48.728;9.142;2023-06-19T07:01:02;23.00;99.90
46438;DHT22;32137;48.728;9.142;2023-06-19T07:03:27;23.00;99.90
46438;DHT22;32137;48.728;9.142;2023-06-19T07:05:55;23.00;99.90
46438;DHT22;32137;48.728;9.142;2023-06-19T07:08:21;22.90;99.90
46438;DHT22;32137;48.728;9.142;2023-06-19T07:10:46;22.90;99.90
46438;DHT22;32137;48.728;9.142;2023-06-19T07:13:12;22.90;99.90
46438;DHT22;32137;48.728;9.142;2023-06-19T07:15:37;22.90;99.90
46438;DHT22;32137;48.728;9.142;2023-06-19T07:18:03;22.90;99.90
46438;DHT22;32137;48.728;9.142;2023-06-19T07:20:28;22.90;99.90
46438;DHT22;32137;48.728;9.142;2023-06-19T07:22:54;22.90;99.90
46438;DHT22;32137;48.728;9.142;2023-06-19T07:25:20;22.80;99.90
46438;DHT22;32137;48.728;9.142;2023-06-19T07:27:46;22.80;99.90
46438;DHT22;32137;48.728;9.142;2023-06-19T07:30:11;22.80;99.90
46438;DHT22;32137;48.728;9.142;2023-06-19T07:32:37;22.80;99.90
46438;DHT22;32137;48.728;9.142;2023-06-19T07:35:04;22.90;99.90
46438;DHT22;32137;48.728;9.142;2023-06-19T07:37:30;22.90;99.90
46438;DHT22;32137;48.728;9.142;2023-06-19T07:39:55;23.00;99.90
46438;DHT22;32137;48.728;9.142;2023-06-19T07:42:21;23.10;99.90
46438;DHT22;32137;48.728;9.142;2023-06-19T07:44:47;23.10;99.90
46438;DHT22;32137;48.728;9.142;2023-06-19T07:47:14;23.20;99.90
46438;DHT22;32137;48.728;9.142;2023-06-19T07:49:40;23.40;99.90
46438;DHT22;32137;48.728;9.142;2023-06-19T07:52:06;23.60;99.90
46438;DHT22;32137;48.728;9.142;2023-06-19T07:54:34;23.70;99.90
46438;DHT22;32137;48.728;9.142;2023-06-19T07:57:00;23.80;99.90
46438;DHT22;32137;48.728;9.142;2023-06-19T07:59:25;23.90;99.90
46438;DHT22;32137;48.728;9.142;2023-06-19T08:01:51;23.80;99.90
46438;DHT22;32137;48.728;9.142;2023-06-19T08:04:17;23.80;99.90
46438;DHT22;32137;48.728;9.142;2023-06-19T08:06:43;23.90;99.90
46438;DHT22;32137;48.728;9.142;2023-06-19T08:09:09;23.90;99.90
46438;DHT22;32137;48.728;9.142;2023-06-19T08:11:34;23.90;99.90
46438;DHT22;32137;48.728;9.142;2023-06-19T08:14:00;23.90;99.90
46438;DHT22;32137;48.728;9.142;2023-06-19T08:16:26;23.80;99.90
46438;DHT22;32137;48.728;9.142;2023-06-19T08:18:52;23.80;99.90
46438;DHT22;32137;48.728;9.142;2023-06-19T08:21:17;23.80;99.90
46438;DHT22;32137;48.728;9.142;2023-06-19T08:23:43;23.80;99.90
46438;DHT22;32137;48.728;9.142;2023-06-19T08:26:10;23.90;99.90
46438;DHT22;32137;48.728;9.142;2023-06-19T08:28:36;23.90;99.90
46438;DHT22;32137;48.728;9.142;2023-06-19T08:31:02;24.00;99.90
46438;DHT22;32137;48.728;9.142;2023-06-19T08:33:28;24.00;99.90
46438;DHT22;32137;48.728;9.142;2023-06-19T08:35:54;23.90;99.90
46438;DHT22;32137;48.728;9.142;2023-06-19T08:38:19;23.80;99.90
46438;DHT22;32137;48.728;9.142;2023-06-19T08:40:45;23.70;99.90
46438;DHT22;32137;48.728;9.142;2023-06-19T08:43:11;23.70;99.90
46438;DHT22;32137;48.728;9.142;2023-06-19T08:45:37;23.70;99.90
46438;DHT22;32137;48.728;9.142;2023-06-19T08:48:03;23.70;99.90
46438;DHT22;32137;48.728;9.142;2023-06-19T08:50:33;23.60;99.90
46438;DHT22;32137;48.728;9.142;2023-06-19T08:52:58;23.70;99.90
46438;DHT22;32137;48.728;9.142;2023-06-19T08:55:24;23.70;99.90
46438;DHT22;32137;48.728;9.142;2023-06-19T08:57:50;23.70;99.90
46438;DHT22;32137;48.728;9.142;2023-06-19T09:00:27;23.80;99.90
46438;DHT22;32137;48.728;9.142;2023-06-19T09:03:00;23.90;99.90
46438;DHT22;32137;48.728;9.142;2023-06-19T09:05:27;23.90;99.90
46438;DHT22;32137;48.728;9.142;2023-06-19T09:08:00;23.90;99.90
46438;DHT22;32137;48.728;9.142;2023-06-19T09:10:28;23.90;99.90
46438;DHT22;32137;48.728;9.142;2023-06-19T09:13:01;24.00;99.90
46438;DHT22;32137;48.728;9.142;2023-06-19T09:15:29;24.10;99.90
46438;DHT22;32137;48.728;9.142;2023-06-19T09:18:09;24.20;99.90
46438;DHT22;32137;48.728;9.142;2023-06-19T09:20:42;24.40;99.90
46438;DHT22;32137;48.728;9.142;2023-06-19T09:23:11;24.60;99.90
46438;DHT22;32137;48.728;9.142;2023-06-19T09:25:48;24.70;99.90
46438;DHT22;32137;48.728;9.142;2023-06-19T09:28:24;24.80;99.90
46438;DHT22;32137;48.728;9.142;2023-06-19T09:31:01;24.90;99.90
46438;DHT22;32137;48.728;9.142;2023-06-19T09:33:29;24.90;99.90
46438;DHT22;32137;48.728;9.142;2023-06-19T09:35:56;25.00;99.90
46438;DHT22;32137;48.728;9.142;2023-06-19T09:38:28;25.00;99.90
46438;DHT22;32137;48.728;9.142;2023-06-19T09:40:55;25.10;99.90
46438;DHT22;32137;48.728;9.142;2023-06-19T09:43:26;25.10;99.90
46438;DHT22;32137;48.728;9.142;2023-06-19T09:45:55;25.10;99.90
46438;DHT22;32137;48.728;9.142;2023-06-19T09:48:27;25.10;99.90
46438;DHT22;32137;48.728;9.142;2023-06-19T09:50:58;25.00;99.90
46438;DHT22;32137;48.728;9.142;2023-06-19T09:53:26;24.90;99.90
46438;DHT22;32137;48.728;9.142;2023-06-19T09:55:51;24.90;99.90
46438;DHT22;32137;48.728;9.142;2023-06-19T09:58:19;24.90;99.90
46438;DHT22;32137;48.728;9.142;2023-06-19T10:00:45;25.00;99.90
46438;DHT22;32137;48.728;9.142;2023-06-19T10:03:12;25.10;99.90
46438;DHT22;32137;48.728;9.142;2023-06-19T10:05:38;25.20;99.90
46438;DHT22;32137;48.728;9.142;2023-06-19T10:08:04;25.20;99.90
46438;DHT22;32137;48.728;9.142;2023-06-19T10:10:30;25.30;99.90
46438;DHT22;32137;48.728;9.142;2023-06-19T10:12:58;25.40;99.90
46438;DHT22;32137;48.728;9.142;2023-06-19T10:15:26;25.50;99.90
46438;DHT22;32137;48.728;9.142;2023-06-19T10:17:54;25.50;99.90
46438;DHT22;32137;48.728;9.142;2023-06-19T10:20:34;25.70;99.90
46438;DHT22;32137;48.728;9.142;2023-06-19T10:23:05;25.80;99.90
46438;DHT22;32137;48.728;9.142;2023-06-19T10:25:33;25.90;99.90
46438;DHT22;32137;48.728;9.142;2023-06-19T10:27:59;26.00;99.90
46438;DHT22;32137;48.728;9.142;2023-06-19T10:30:25;26.10;99.90
46438;DHT22;32137;48.728;9.142;2023-06-19T10:32:51;26.10;99.90
46438;DHT22;32137;48.728;9.142;2023-06-19T10:35:18;26.00;99.90
46438;DHT22;32137;48.728;9.142;2023-06-19T10:37:47;26.00;99.90
46438;DHT22;32137;48.728;9.142;2023-06-19T10:40:13;26.00;99.90
46438;DHT22;32137;48.728;9.142;2023-06-19T10:42:39;26.10;99.90
46438;DHT22;32137;48.728;9.142;2023-06-19T10:45:08;26.10;99.90
46438;DHT22;32137;48.728;9.142;2023-06-19T10:47:43;26.30;99.90
46438;DHT22;32137;48.728;9.142;2023-06-19T10:50:13;26.40;99.90
46438;DHT22;32137;48.728;9.142;2023-06-19T10:52:40;26.50;99.90
46438;DHT22;32137;48.728;9.142;2023-06-19T10:55:07;26.60;99.90
46438;DHT22;32137;48.728;9.142;2023-06-19T10:57:33;26.60;99.90
46438;DHT22;32137;48.728;9.142;2023-06-19T10:59:58;26.80;99.90
46438;DHT22;32137;48.728;9.142;2023-06-19T11:02:25;27.00;99.90
46438;DHT22;32137;48.728;9.142;2023-06-19T11:04:54;27.10;99.90
46438;DHT22;32137;48.728;9.142;2023-06-19T11:07:22;27.10;99.90
46438;DHT22;32137;48.728;9.142;2023-06-19T11:09:51;27.10;99.90
46438;DHT22;32137;48.728;9.142;2023-06-19T11:12:22;26.90;99.90
46438;DHT22;32137;48.728;9.142;2023-06-19T11:14:49;26.70;99.90
46438;DHT22;32137;48.728;9.142;2023-06-19T11:17:15;26.70;99.90
46438;DHT22;32137;48.728;9.142;2023-06-19T11:19:41;26.70;99.90
46438;DHT22;32137;48.728;9.142;2023-06-19T11:22:09;26.90;99.90
46438;DHT22;32137;48.728;9.142;2023-06-19T11:24:34;27.10;99.90
46438;DHT22;32137;48.728;9.142;2023-06-19T11:27:00;27.40;99.90
46438;DHT22;32137;48.728;9.142;2023-06-19T11:29:29;27.50;99.90
46438;DHT22;32137;48.728;9.142;2023-06-19T11:32:09;27.80;99.90
46438;DHT22;32137;48.728;9.142;2023-06-19T11:34:36;27.80;99.90
46438;DHT22;32137;48.728;9.142;2023-06-19T11:37:12;28.00;99.90
46438;DHT22;32137;48.728;9.142;2023-06-19T11:39:38;28.20;99.90
46438;DHT22;32137;48.728;9.142;2023-06-19T11:42:05;28.50;99.90
46438;DHT22;32137;48.728;9.142;2023-06-19T11:44:31;29.20;99.90
46438;DHT22;32137;48.728;9.142;2023-06-19T11:46:57;30.80;99.90
46438;DHT22;32137;48.728;9.142;2023-06-19T11:49:24;32.00;99.90
46438;DHT22;32137;48.728;9.142;2023-06-19T11:51:50;33.20;99.90
46438;DHT22;32137;48.728;9.142;2023-06-19T11:54:16;33.40;99.90
46438;DHT22;32137;48.728;9.142;2023-06-19T11:56:41;33.20;99.90
46438;DHT22;32137;48.728;9.142;2023-06-19T11:59:07;32.70;99.90
46438;DHT22;32137;48.728;9.142;2023-06-19T12:01:34;32.40;99.90
46438;DHT22;32137;48.728;9.142;2023-06-19T12:04:01;32.20;99.90
46438;DHT22;32137;48.728;9.142;2023-06-19T12:06:28;31.80;99.90
46438;DHT22;32137;48.728;9.142;2023-06-19T12:08:54;31.70;99.90
46438;DHT22;32137;48.728;9.142;2023-06-19T12:11:19;32.00;99.90
46438;DHT22;32137;48.728;9.142;2023-06-19T12:13:45;32.50;99.90
46438;DHT22;32137;48.728;9.142;2023-06-19T12:16:11;33.20;99.90
46438;DHT22;32137;48.728;9.142;2023-06-19T12:18:37;33.70;99.90
46438;DHT22;32137;48.728;9.142;2023-06-19T12:21:03;33.90;99.90
46438;DHT22;32137;48.728;9.142;2023-06-19T12:23:29;34.10;99.90
46438;DHT22;32137;48.728;9.142;2023-06-19T12:25:55;34.20;99.90
46438;DHT22;32137;48.728;9.142;2023-06-19T12:28:21;34.30;99.90
46438;DHT22;32137;48.728;9.142;2023-06-19T12:30:47;34.90;99.90
46438;DHT22;32137;48.728;9.142;2023-06-19T12:33:16;34.70;99.90
46438;DHT22;32137;48.728;9.142;2023-06-19T12:35:43;34.70;99.90
46438;DHT22;32137;48.728;9.142;2023-06-19T12:38:09;34.40;99.90
46438;DHT22;32137;48.728;9.142;2023-06-19T12:40:36;34.70;99.90
46438;DHT22;32137;48.728;9.142;2023-06-19T12:43:01;35.10;99.90
46438;DHT22;32137;48.728;9.142;2023-06-19T12:45:27;35.80;99.90
46438;DHT22;32137;48.728;9.142;2023-06-19T12:47:53;37.10;99.90
46438;DHT22;32137;48.728;9.142;2023-06-19T12:50:19;37.40;99.90
46438;DHT22;32137;48.728;9.142;2023-06-19T12:52:45;38.80;99.90
46438;DHT22;32137;48.728;9.142;2023-06-19T12:55:10;37.30;99.90
46438;DHT22;32137;48.728;9.142;2023-06-19T12:57:36;36.60;99.90
46438;DHT22;32137;48.728;9.142;2023-06-19T13:00:02;35.50;99.90
46438;DHT22;32137;48.728;9.142;2023-06-19T13:02:30;35.10;99.90
46438;DHT22;32137;48.728;9.142;2023-06-19T13:04:56;34.90;99.90
46438;DHT22;32137;48.728;9.142;2023-06-19T13:07:23;34.40;99.90
46438;DHT22;32137;48.728;9.142;2023-06-19T13:09:49;34.00;99.90
46438;DHT22;32137;48.728;9.142;2023-06-19T13:12:14;34.10;99.90
46438;DHT22;32137;48.728;9.142;2023-06-19T13:14:40;33.70;99.90
46438;DHT22;32137;48.728;9.142;2023-06-19T13:17:05;33.60;99.90
46438;DHT22;32137;48.728;9.142;2023-06-19T13:19:31;33.10;99.90
46438;DHT22;32137;48.728;9.142;2023-06-19T13:21:57;32.80;99.90
46438;DHT22;32137;48.728;9.142;2023-06-19T13:24:22;32.70;99.90
46438;DHT22;32137;48.728;9.142;2023-06-19T13:26:48;32.60;99.90
46438;DHT22;32137;48.728;9.142;2023-06-19T13:29:15;32.50;99.90
46438;DHT22;32137;48.728;9.142;2023-06-19T13:31:40;32.40;99.90
46438;DHT22;32137;48.728;9.142;2023-06-19T13:34:06;32.50;99.90
46438;DHT22;32137;48.728;9.142;2023-06-19T13:36:32;33.30;99.90
46438;DHT22;32137;48.728;9.142;2023-06-19T13:38:57;33.60;99.90
46438;DHT22;32137;48.728;9.142;2023-06-19T13:41:23;33.10;99.90
46438;DHT22;32137;48.728;9.142;2023-06-19T13:43:52;33.10;99.90
46438;DHT22;32137;48.728;9.142;2023-06-19T13:46:19;32.90;99.90
46438;DHT22;32137;48.728;9.142;2023-06-19T13:48:47;32.50;99.90
46438;DHT22;32137;48.728;9.142;2023-06-19T13:51:18;32.10;99.90
46438;DHT22;32137;48.728;9.142;2023-06-19T13:53:44;32.20;99.90
46438;DHT22;32137;48.728;9.142;2023-06-19T13:56:11;32.30;99.90
46438;DHT22;32137;48.728;9.142;2023-06-19T13:58:37;32.40;99.90
46438;DHT22;32137;48.728;9.142;2023-06-19T14:01:02;32.60;99.90
46438;DHT22;32137;48.728;9.142;2023-06-19T14:03:28;32.60;99.90
46438;DHT22;32137;48.728;9.142;2023-06-19T14:05:53;32.80;99.90
46438;DHT22;32137;48.728;9.142;2023-06-19T14:08:19;32.80;99.90
46438;DHT22;32137;48.728;9.142;2023-06-19T14:10:45;32.90;99.90
46438;DHT22;32137;48.728;9.142;2023-06-19T14:13:10;32.90;99.90
46438;DHT22;32137;48.728;9.142;2023-06-19T14:15:36;32.90;99.90
46438;DHT22;32137;48.728;9.142;2023-06-19T14:18:01;33.10;99.90
46438;DHT22;32137;48.728;9.142;2023-06-19T14:20:27;33.20;99.90
46438;DHT22;32137;48.728;9.142;2023-06-19T14:22:53;33.30;99.90
46438;DHT22;32137;48.728;9.142;2023-06-19T14:25:18;33.50;99.90
46438;DHT22;32137;48.728;9.142;2023-06-19T14:27:44;33.60;99.90
46438;DHT22;32137;48.728;9.142;2023-06-19T14:30:10;33.70;99.90
46438;DHT22;32137;48.728;9.142;2023-06-19T14:32:36;33.70;99.90
46438;DHT22;32137;48.728;9.142;2023-06-19T14:35:05;33.70;99.90
46438;DHT22;32137;48.728;9.142;2023-06-19T14:37:31;33.50;99.90
46438;DHT22;32137;48.728;9.142;2023-06-19T14:39:56;33.40;99.90
46438;DHT22;32137;48.728;9.142;2023-06-19T14:42:22;33.30;99.90
46438;DHT22;32137;48.728;9.142;2023-06-19T14:44:48;33.30;99.90
46438;DHT22;32137;48.728;9.142;2023-06-19T14:47:13;33.20;99.90
46438;DHT22;32137;48.728;9.142;2023-06-19T14:49:39;33.20;99.90
46438;DHT22;32137;48.728;9.142;2023-06-19T14:52:05;33.00;99.90
46438;DHT22;32137;48.728;9.142;2023-06-19T14:54:31;32.90;99.90
46438;DHT22;32137;48.728;9.142;2023-06-19T14:56:57;32.90;99.90
46438;DHT22;32137;48.728;9.142;2023-06-19T14:59:22;32.70;99.90
46438;DHT22;32137;48.728;9.142;2023-06-19T15:01:48;32.60;99.90
46438;DHT22;32137;48.728;9.142;2023-06-19T15:04:13;32.60;99.90
46438;DHT22;32137;48.728;9.142;2023-06-19T15:06:39;32.60;99.90
46438;DHT22;32137;48.728;9.142;2023-06-19T15:09:05;32.70;99.90
46438;DHT22;32137;48.728;9.142;2023-06-19T15:11:30;32.60;99.90
46438;DHT22;32137;48.728;9.142;2023-06-19T15:13:56;32.70;99.90
46438;DHT22;32137;48.728;9.142;2023-06-19T15:16:21;32.90;99.90
46438;DHT22;32137;48.728;9.142;2023-06-19T15:18:48;33.10;99.90
46438;DHT22;32137;48.728;9.142;2023-06-19T15:21:14;33.20;99.90
46438;DHT22;32137;48.728;9.142;2023-06-19T15:23:39;33.20;99.90
46438;DHT22;32137;48.728;9.142;2023-06-19T15:26:05;33.10;99.90